Time;durP1;ratioP1;P1;durP2;ratioP2;P2;SDS_P1;SDS_P2;PMS_P1;PMS_P2;Temp;Humidity;BMP_temperature;BMP_pressure;BME280_temperature;BME280_humidity;BME280_pressure;Samples;Min_cycle;Max_cycle;Signal;HPM_P1;HPM_P2
2021/09/01 00:00:35;;;;;;;19.88;3.95;;;15.70;99.90;;;;;;4804146;29;20106;-90
2021/09/01 00:03:01;;;;;;;23.95;5.10;;;15.60;99.90;;;;;;4774566;29;20384;-90
2021/09/01 00:05:27;;;;;;;17.02;4.15;;;15.60;99.90;;;;;;4804144;29;20050;-90
2021/09/01 00:07:52;;;;;;;17.02;3.92;;;15.60;99.90;;;;;;4804780;29;20054;-91
2021/09/01 00:10:18;;;;;;;25.17;4.88;;;15.60;99.90;;;;;;4804450;29;20057;-91
2021/09/01 00:12:44;;;;;;;21.23;4.00;;;15.60;99.90;;;;;;4788639;29;20922;-91
2021/09/01 00:15:11;;;;;;;29.13;4.38;;;15.60;99.90;;;;;;4804672;29;20054;-92
2021/09/01 00:17:37;;;;;;;13.65;3.47;;;15.60;99.90;;;;;;4803811;29;20134;-91
2021/09/01 00:20:06;;;;;;;16.55;3.90;;;15.50;99.90;;;;;;4789565;29;20073;-91
2021/09/01 00:22:32;;;;;;;14.38;4.07;;;15.60;99.90;;;;;;4804192;29;20175;-93
2021/09/01 00:24:58;;;;;;;25.88;5.63;;;15.50;99.90;;;;;;4789325;29;20141;-90
2021/09/01 00:27:24;;;;;;;17.80;4.43;;;15.60;99.90;;;;;;4803618;29;20057;-89
2021/09/01 00:29:50;;;;;;;15.30;4.00;;;15.50;99.90;;;;;;4804727;29;20058;-90
2021/09/01 00:32:15;;;;;;;18.63;3.25;;;15.50;99.90;;;;;;4804927;29;20054;-91
2021/09/01 00:34:41;;;;;;;19.42;4.53;;;15.50;99.90;;;;;;4774429;29;20135;-91
2021/09/01 00:37:07;;;;;;;17.38;4.32;;;15.50;99.90;;;;;;4807908;29;20051;-91
2021/09/01 00:39:33;;;;;;;17.70;4.15;;;15.50;99.90;;;;;;4808042;29;20403;-92
2021/09/01 00:42:09;;;;;;;16.67;4.20;;;15.50;99.90;;;;;;4793258;29;20085;-93
2021/09/01 00:44:36;;;;;;;17.67;3.38;;;15.50;99.90;;;;;;4801276;29;20061;-91
2021/09/01 00:47:03;;;;;;;12.65;3.42;;;15.50;99.90;;;;;;4795975;29;20050;-94
2021/09/01 00:49:30;;;;;;;19.73;3.80;;;15.50;99.90;;;;;;4808018;29;20086;-90
2021/09/01 00:51:56;;;;;;;19.42;4.80;;;15.50;99.90;;;;;;4808240;29;20061;-93
2021/09/01 00:54:25;;;;;;;21.80;4.90;;;15.50;99.90;;;;;;4792501;29;20057;-93
2021/09/01 00:56:53;;;;;;;14.52;3.72;;;15.50;99.90;;;;;;4806982;29;20114;-91
2021/09/01 00:59:26;;;;;;;21.05;3.97;;;15.50;99.90;;;;;;4807483;29;20043;-90
2021/09/01 01:01:53;;;;;;;24.30;4.88;;;15.50;99.90;;;;;;4807871;29;20052;-92
2021/09/01 01:04:20;;;;;;;18.70;4.82;;;15.50;99.90;;;;;;4792039;29;20050;-89
2021/09/01 01:06:46;;;;;;;18.33;4.43;;;15.50;99.90;;;;;;4791001;29;20047;-90
2021/09/01 01:09:12;;;;;;;18.05;4.13;;;15.50;99.90;;;;;;4792209;29;20139;-91
2021/09/01 01:11:57;;;;;;;15.90;4.22;;;15.50;99.90;;;;;;4806685;29;20052;-91
2021/09/01 01:14:23;;;;;;;21.77;3.80;;;15.50;99.90;;;;;;4807274;29;20050;-90
2021/09/01 01:16:49;;;;;;;19.73;4.30;;;15.50;99.90;;;;;;4806607;29;20626;-91
2021/09/01 01:19:17;;;;;;;20.42;4.13;;;15.50;99.90;;;;;;4806945;29;20049;-91
2021/09/01 01:21:43;;;;;;;17.77;4.15;;;15.50;99.90;;;;;;4806632;29;20046;-92
2021/09/01 01:24:08;;;;;;;21.95;3.95;;;15.50;99.90;;;;;;4807735;29;20457;-91
2021/09/01 01:26:34;;;;;;;25.85;4.40;;;15.50;99.90;;;;;;4806558;29;20053;-91
2021/09/01 01:29:03;;;;;;;17.05;4.18;;;15.50;99.90;;;;;;4807122;29;20054;-91
2021/09/01 01:31:29;;;;;;;16.58;3.85;;;15.40;99.90;;;;;;4791888;29;20851;-91
2021/09/01 01:33:55;;;;;;;23.33;3.85;;;15.50;99.90;;;;;;4806527;29;20050;-90
2021/09/01 01:36:21;;;;;;;15.48;3.95;;;15.50;99.90;;;;;;4806399;29;20058;-89
2021/09/01 01:38:46;;;;;;;18.73;3.70;;;15.50;99.90;;;;;;4821541;29;20077;-91
2021/09/01 01:41:12;;;;;;;16.70;3.47;;;15.50;99.90;;;;;;4806433;29;20128;-90
2021/09/01 01:43:38;;;;;;;15.48;4.22;;;15.50;99.90;;;;;;4806168;29;20054;-89
2021/09/01 01:46:05;;;;;;;15.35;3.60;;;15.60;99.90;;;;;;4806227;29;20475;-91
2021/09/01 01:48:32;;;;;;;16.67;4.20;;;15.60;99.90;;;;;;4805998;29;20062;-90
2021/09/01 01:50:58;;;;;;;15.20;3.17;;;15.60;99.90;;;;;;4806718;29;20058;-90
2021/09/01 01:53:24;;;;;;;16.08;4.38;;;15.60;99.90;;;;;;4806219;29;20093;-94
2021/09/01 01:55:50;;;;;;;25.33;4.45;;;15.60;99.90;;;;;;4791754;29;20096;-93
2021/09/01 01:58:15;;;;;;;15.38;4.15;;;15.60;99.90;;;;;;4806722;29;20088;-93
2021/09/01 02:00:41;;;;;;;20.85;4.47;;;15.60;99.90;;;;;;4806136;29;20043;-91
2021/09/01 02:03:07;;;;;;;14.65;4.07;;;15.60;99.90;;;;;;4791692;29;20054;-91
2021/09/01 02:05:33;;;;;;;25.65;5.13;;;15.60;99.90;;;;;;4806156;29;20049;-89
2021/09/01 02:07:59;;;;;;;17.75;3.85;;;15.60;99.90;;;;;;4806270;29;20107;-91
2021/09/01 02:10:24;;;;;;;16.42;3.65;;;15.60;99.90;;;;;;4791234;29;20137;-92
2021/09/01 02:12:51;;;;;;;19.55;4.00;;;15.60;99.90;;;;;;4805491;29;20050;-90
2021/09/01 02:15:17;;;;;;;16.98;4.35;;;15.60;99.90;;;;;;4790986;29;20115;-89
2021/09/01 02:17:43;;;;;;;20.27;4.32;;;15.60;99.90;;;;;;4805462;29;20403;-90
2021/09/01 02:20:11;;;;;;;17.33;3.67;;;15.60;99.90;;;;;;4805918;29;20646;-90
2021/09/01 02:22:39;;;;;;;11.57;3.55;;;15.60;99.90;;;;;;4804863;29;20062;-90
2021/09/01 02:25:06;;;;;;;25.70;4.75;;;15.60;99.90;;;;;;4791251;29;20286;-91
2021/09/01 02:27:31;;;;;;;15.32;4.15;;;15.60;99.90;;;;;;4806078;29;20115;-91
2021/09/01 02:29:57;;;;;;;21.38;4.43;;;15.60;99.90;;;;;;4805513;29;20454;-90
2021/09/01 02:32:23;;;;;;;17.63;4.28;;;15.60;99.90;;;;;;4806476;29;20058;-92
2021/09/01 02:34:49;;;;;;;25.92;6.07;;;15.60;99.90;;;;;;4804780;29;20114;-89
2021/09/01 02:37:15;;;;;;;23.10;4.85;;;15.70;99.90;;;;;;4805433;29;20058;-93
2021/09/01 02:39:41;;;;;;;16.48;4.05;;;15.70;99.90;;;;;;4790093;29;20053;-90
2021/09/01 02:42:07;;;;;;;15.90;3.90;;;15.70;99.90;;;;;;4805872;29;20420;-92
2021/09/01 02:44:33;;;;;;;17.80;4.10;;;15.70;99.90;;;;;;4805881;29;20120;-90
2021/09/01 02:46:58;;;;;;;15.15;4.18;;;15.70;99.90;;;;;;4789711;29;20110;-91
2021/09/01 02:49:24;;;;;;;15.10;3.72;;;15.70;99.90;;;;;;4805508;29;20046;-90
2021/09/01 02:51:50;;;;;;;14.77;3.53;;;15.70;99.90;;;;;;4804626;29;20057;-90
2021/09/01 02:54:16;;;;;;;17.42;3.85;;;15.70;99.90;;;;;;4805422;29;20046;-89
2021/09/01 02:56:42;;;;;;;12.95;3.58;;;15.70;99.90;;;;;;4789231;29;20510;-90
2021/09/01 02:59:07;;;;;;;22.20;4.20;;;15.70;99.90;;;;;;4805306;29;20517;-91
2021/09/01 03:01:33;;;;;;;13.80;3.38;;;15.70;99.90;;;;;;4775572;29;20077;-89
2021/09/01 03:03:59;;;;;;;19.50;4.65;;;15.70;99.90;;;;;;4804083;29;20863;-90
2021/09/01 03:06:24;;;;;;;16.02;3.72;;;15.60;99.90;;;;;;4805477;29;20050;-90
2021/09/01 03:08:50;;;;;;;17.92;3.72;;;15.60;99.90;;;;;;4804576;29;20119;-92
2021/09/01 03:11:16;;;;;;;21.05;4.07;;;15.60;99.90;;;;;;4806712;29;20057;-92
2021/09/01 03:13:43;;;;;;;16.58;3.88;;;15.60;99.90;;;;;;4804829;29;20058;-90
2021/09/01 03:16:08;;;;;;;14.95;4.28;;;15.60;99.90;;;;;;4789995;29;20331;-91
2021/09/01 03:18:34;;;;;;;17.80;4.25;;;15.60;99.90;;;;;;4805370;29;20491;-92
2021/09/01 03:21:00;;;;;;;23.17;4.10;;;15.60;99.90;;;;;;4804700;29;20053;-91
2021/09/01 03:23:26;;;;;;;15.95;3.90;;;15.60;99.90;;;;;;4789994;29;20038;-92
2021/09/01 03:25:51;;;;;;;11.85;3.28;;;15.70;99.90;;;;;;4804210;29;20109;-90
2021/09/01 03:28:17;;;;;;;23.10;4.20;;;15.60;99.90;;;;;;4790025;29;20137;-90
2021/09/01 03:30:43;;;;;;;15.57;3.72;;;15.60;99.90;;;;;;4804448;29;20050;-89
2021/09/01 03:33:08;;;;;;;15.73;4.05;;;15.60;99.90;;;;;;4805076;29;20046;-92
2021/09/01 03:35:34;;;;;;;16.10;3.22;;;15.60;99.90;;;;;;4805503;29;20527;-92
2021/09/01 03:38:00;;;;;;;15.23;4.75;;;15.60;99.90;;;;;;4804151;29;20098;-93
2021/09/01 03:40:26;;;;;;;15.15;3.95;;;15.60;99.90;;;;;;4805582;29;20077;-92
2021/09/01 03:42:52;;;;;;;19.70;3.55;;;15.60;99.90;;;;;;4789556;29;20065;-92
2021/09/01 03:45:18;;;;;;;19.40;4.40;;;15.60;99.90;;;;;;4805575;29;20050;-92
2021/09/01 03:47:43;;;;;;;17.33;3.80;;;15.60;99.90;;;;;;4804757;29;20073;-91
2021/09/01 03:50:11;;;;;;;11.40;3.65;;;15.60;99.90;;;;;;4805286;29;20133;-93
2021/09/01 03:52:37;;;;;;;15.32;4.20;;;15.60;99.90;;;;;;4811932;29;20137;-93
2021/09/01 03:55:07;;;;;;;13.07;3.72;;;15.60;99.90;;;;;;4790160;29;20187;-92
2021/09/01 03:57:33;;;;;;;24.10;4.05;;;15.60;99.90;;;;;;4805310;29;20106;-92
2021/09/01 03:59:59;;;;;;;19.40;4.28;;;15.60;99.90;;;;;;4804364;29;20501;-91
2021/09/01 04:02:25;;;;;;;15.02;4.25;;;15.60;99.90;;;;;;4805162;29;20160;-93
2021/09/01 04:04:51;;;;;;;14.25;3.33;;;15.60;99.90;;;;;;4803990;29;20159;-92
2021/09/01 04:07:16;;;;;;;20.52;3.78;;;15.60;99.90;;;;;;4789841;29;20056;-91
2021/09/01 04:09:42;;;;;;;13.70;3.53;;;15.60;99.90;;;;;;4806503;29;20042;-90
2021/09/01 04:12:08;;;;;;;13.10;3.30;;;15.60;99.90;;;;;;4810555;29;20050;-93
2021/09/01 04:14:34;;;;;;;15.10;4.00;;;15.60;99.90;;;;;;4810965;29;20053;-92
2021/09/01 04:16:59;;;;;;;15.82;3.70;;;15.60;99.90;;;;;;4810518;29;20053;-95
2021/09/01 04:19:25;;;;;;;17.48;3.72;;;15.60;99.90;;;;;;4810339;29;20065;-93
2021/09/01 04:21:51;;;;;;;14.70;3.08;;;15.60;99.90;;;;;;4809816;29;20054;-90
2021/09/01 04:24:17;;;;;;;12.20;3.22;;;15.60;99.90;;;;;;4810758;29;20132;-92
2021/09/01 04:26:42;;;;;;;15.00;3.08;;;15.60;99.90;;;;;;4810775;29;20054;-92
2021/09/01 04:29:08;;;;;;;16.23;3.38;;;15.60;99.90;;;;;;4810430;29;20179;-91
2021/09/01 04:31:34;;;;;;;14.68;3.88;;;15.50;99.90;;;;;;4780834;29;20484;-91
2021/09/01 04:34:00;;;;;;;13.98;3.35;;;15.60;99.90;;;;;;4809979;29;20058;-92
2021/09/01 04:36:25;;;;;;;17.50;3.50;;;15.60;99.90;;;;;;4810207;29;20054;-93
2021/09/01 04:38:51;;;;;;;13.65;3.78;;;15.60;99.90;;;;;;4795199;29;20055;-91
2021/09/01 04:41:17;;;;;;;14.63;3.58;;;15.60;99.90;;;;;;4810612;29;20050;-91
2021/09/01 04:43:42;;;;;;;15.52;3.60;;;15.60;99.90;;;;;;4810755;29;20053;-91
2021/09/01 04:46:08;;;;;;;12.27;3.60;;;15.60;99.90;;;;;;4810162;29;20949;-95
2021/09/01 04:48:34;;;;;;;20.42;3.50;;;15.60;99.90;;;;;;4809668;29;20106;-92
2021/09/01 04:50:59;;;;;;;11.80;3.10;;;15.50;99.90;;;;;;4794865;29;20122;-94
2021/09/01 04:53:25;;;;;;;16.85;4.00;;;15.50;99.90;;;;;;4810774;29;20054;-94
2021/09/01 04:55:51;;;;;;;23.25;4.35;;;15.50;99.90;;;;;;4809398;29;20050;-93
2021/09/01 04:58:16;;;;;;;12.38;3.25;;;15.60;99.90;;;;;;4795149;29;20145;-92
2021/09/01 05:00:42;;;;;;;16.00;3.85;;;15.60;99.90;;;;;;4810200;29;20046;-90
2021/09/01 05:03:09;;;;;;;19.52;3.78;;;15.50;99.90;;;;;;4809300;29;20495;-92
2021/09/01 05:05:34;;;;;;;14.93;3.97;;;15.50;99.90;;;;;;4810344;29;20093;-92
2021/09/01 05:08:00;;;;;;;20.15;3.80;;;15.50;99.90;;;;;;4809733;29;20090;-93
2021/09/01 05:10:26;;;;;;;18.83;4.18;;;15.50;99.90;;;;;;4810351;29;20050;-92
2021/09/01 05:12:52;;;;;;;18.50;3.67;;;15.50;99.90;;;;;;4809612;29;20057;-92
2021/09/01 05:15:21;;;;;;;21.35;4.00;;;15.60;99.90;;;;;;4810592;29;20054;-91
2021/09/01 05:17:47;;;;;;;18.83;3.67;;;15.60;99.90;;;;;;4809775;29;20050;-90
2021/09/01 05:20:14;;;;;;;13.52;3.05;;;15.60;99.90;;;;;;4794514;29;20054;-91
2021/09/01 05:22:45;;;;;;;20.42;5.25;;;15.60;99.90;;;;;;4806192;29;20066;-92
2021/09/01 05:25:13;;;;;;;11.32;3.83;;;15.60;99.90;;;;;;4806881;29;20057;-91
2021/09/01 05:27:41;;;;;;;13.13;3.88;;;15.70;99.90;;;;;;4807473;29;20049;-90
2021/09/01 05:30:10;;;;;;;19.77;3.70;;;15.70;99.90;;;;;;4806566;29;20484;-90
2021/09/01 05:32:38;;;;;;;18.00;3.78;;;15.60;99.90;;;;;;4807226;29;20415;-90
2021/09/01 05:35:05;;;;;;;21.02;5.07;;;15.60;99.90;;;;;;4805770;29;20066;-90
2021/09/01 05:37:31;;;;;;;18.85;4.45;;;15.60;99.90;;;;;;4791866;29;20096;-91
2021/09/01 05:39:58;;;;;;;18.52;4.50;;;15.60;99.90;;;;;;4806037;29;20085;-91
2021/09/01 05:42:27;;;;;;;16.40;4.13;;;15.60;99.90;;;;;;4807084;29;20061;-90
2021/09/01 05:44:55;;;;;;;21.13;3.72;;;15.60;99.90;;;;;;4805961;29;20080;-89
2021/09/01 05:47:22;;;;;;;13.23;3.50;;;15.60;99.90;;;;;;4791815;29;20054;-90
2021/09/01 05:49:50;;;;;;;15.25;4.32;;;15.60;99.90;;;;;;4805977;29;20077;-90
2021/09/01 05:52:17;;;;;;;16.77;3.70;;;15.60;99.90;;;;;;4790932;29;20064;-90
2021/09/01 05:54:46;;;;;;;13.85;3.90;;;15.60;99.90;;;;;;4791998;29;20053;-90
2021/09/01 05:57:15;;;;;;;16.95;3.35;;;15.70;99.90;;;;;;4822339;29;20117;-90
2021/09/01 05:59:46;;;;;;;16.75;4.63;;;15.70;99.90;;;;;;4806513;29;20125;-90
2021/09/01 06:02:19;;;;;;;13.55;3.28;;;15.70;99.90;;;;;;4810377;29;20053;-89
2021/09/01 06:04:46;;;;;;;16.05;3.72;;;15.70;99.90;;;;;;4799265;29;20090;-90
2021/09/01 06:07:18;;;;;;;14.93;3.67;;;15.70;99.90;;;;;;4794311;29;20046;-90
2021/09/01 06:09:46;;;;;;;16.48;3.80;;;15.80;99.90;;;;;;4806284;29;20054;-91
2021/09/01 06:12:19;;;;;;;27.27;4.40;;;15.80;99.90;;;;;;4805983;29;20054;-91
2021/09/01 06:14:45;;;;;;;14.20;3.42;;;15.80;99.90;;;;;;4791055;29;20502;-91
2021/09/01 06:17:11;;;;;;;16.13;4.05;;;15.90;99.90;;;;;;4805434;29;20065;-91
2021/09/01 06:19:38;;;;;;;11.98;3.67;;;15.90;99.90;;;;;;4805548;29;20050;-90
2021/09/01 06:22:04;;;;;;;10.60;4.00;;;15.90;99.90;;;;;;4805337;29;20415;-90
2021/09/01 06:24:33;;;;;;;17.02;4.18;;;15.90;99.90;;;;;;4805821;29;20057;-90
2021/09/01 06:27:00;;;;;;;20.93;4.40;;;16.00;99.90;;;;;;4806168;29;20133;-90
2021/09/01 06:29:27;;;;;;;15.32;3.85;;;16.00;99.90;;;;;;4805826;29;20058;-91
2021/09/01 06:31:53;;;;;;;16.65;3.80;;;16.00;99.90;;;;;;4805822;29;20715;-90
2021/09/01 06:34:19;;;;;;;22.77;5.10;;;16.00;99.90;;;;;;4804305;29;20070;-91
2021/09/01 06:36:45;;;;;;;15.70;3.55;;;16.00;99.90;;;;;;4790315;29;20062;-91
2021/09/01 06:39:11;;;;;;;17.13;4.35;;;16.00;99.90;;;;;;4804897;29;20062;-92
2021/09/01 06:41:37;;;;;;;23.88;5.15;;;16.00;99.90;;;;;;4791148;29;20049;-92
2021/09/01 06:44:03;;;;;;;16.48;4.32;;;16.00;99.90;;;;;;4805588;29;20054;-91
2021/09/01 06:46:28;;;;;;;20.85;4.45;;;16.00;99.90;;;;;;4805996;29;20058;-92
2021/09/01 06:48:54;;;;;;;17.23;4.35;;;16.00;99.90;;;;;;4805646;29;20035;-93
2021/09/01 06:51:20;;;;;;;16.02;4.30;;;16.10;99.90;;;;;;4790482;29;20062;-91
2021/09/01 06:53:45;;;;;;;26.85;4.30;;;16.10;99.90;;;;;;4790723;29;20144;-93
2021/09/01 06:56:11;;;;;;;20.92;3.85;;;16.10;99.90;;;;;;4797693;29;20053;-92
2021/09/01 06:58:37;;;;;;;22.42;4.18;;;16.10;99.90;;;;;;4805820;29;20073;-91
2021/09/01 07:01:03;;;;;;;14.57;4.60;;;16.10;99.90;;;;;;4804829;29;20054;-90
2021/09/01 07:03:29;;;;;;;19.30;3.88;;;16.20;99.90;;;;;;4791499;29;20141;-90
2021/09/01 07:05:55;;;;;;;18.27;4.10;;;16.20;99.90;;;;;;4785530;29;20137;-91
2021/09/01 07:08:22;;;;;;;11.93;3.42;;;16.30;99.90;;;;;;4810837;29;20727;-92
2021/09/01 07:10:49;;;;;;;23.48;4.38;;;16.30;99.90;;;;;;4790794;29;20488;-91
2021/09/01 07:13:14;;;;;;;15.77;3.85;;;16.40;99.90;;;;;;4800771;29;20057;-91
2021/09/01 07:15:41;;;;;;;17.13;4.10;;;16.40;99.90;;;;;;4806382;29;20062;-91
2021/09/01 07:18:07;;;;;;;22.58;4.20;;;16.50;99.90;;;;;;4799835;29;20123;-91
2021/09/01 07:20:33;;;;;;;15.30;4.00;;;16.50;99.90;;;;;;4815583;29;20562;-91
2021/09/01 07:22:58;;;;;;;17.58;3.50;;;16.50;99.90;;;;;;4789919;29;20453;-91
2021/09/01 07:25:24;;;;;;;14.82;3.78;;;16.60;99.90;;;;;;4804480;29;20058;-91
2021/09/01 07:27:50;;;;;;;16.42;3.67;;;16.60;99.90;;;;;;4806725;29;20411;-91
2021/09/01 07:30:16;;;;;;;14.77;3.83;;;16.70;99.90;;;;;;4800901;29;20049;-92
2021/09/01 07:32:42;;;;;;;15.10;4.07;;;16.70;99.90;;;;;;4805924;29;20058;-90
2021/09/01 07:35:08;;;;;;;15.90;4.25;;;16.70;99.90;;;;;;4792753;29;20118;-90
2021/09/01 07:37:45;;;;;;;12.60;3.83;;;16.70;99.90;;;;;;4805925;29;20500;-89
2021/09/01 07:40:12;;;;;;;18.00;4.18;;;16.70;99.90;;;;;;4813809;29;20058;-93
2021/09/01 07:42:38;;;;;;;15.00;3.63;;;16.80;99.90;;;;;;4815114;29;20146;-92
2021/09/01 07:45:04;;;;;;;17.60;3.80;;;16.90;99.90;;;;;;4791378;29;20488;-93
2021/09/01 07:47:30;;;;;;;13.85;4.05;;;16.90;99.90;;;;;;4789937;29;20065;-94
2021/09/01 07:49:56;;;;;;;17.00;4.15;;;16.90;99.90;;;;;;4805016;29;20511;-93
2021/09/01 07:52:21;;;;;;;14.27;4.13;;;16.90;99.90;;;;;;4788638;29;20145;-93
2021/09/01 07:54:47;;;;;;;22.50;4.22;;;17.00;99.90;;;;;;4819629;29;20057;-93
2021/09/01 07:57:13;;;;;;;20.85;3.90;;;17.00;99.90;;;;;;4788258;29;20081;-93
2021/09/01 07:59:38;;;;;;;14.05;3.90;;;17.10;99.90;;;;;;4801961;29;20050;-94
2021/09/01 08:02:04;;;;;;;17.95;4.70;;;17.10;99.90;;;;;;4791992;29;20050;-91
2021/09/01 08:04:30;;;;;;;13.45;3.55;;;17.10;99.90;;;;;;4804515;29;20487;-90
2021/09/01 08:06:55;;;;;;;18.58;3.72;;;17.20;99.90;;;;;;4804317;29;20114;-92
2021/09/01 08:09:22;;;;;;;17.55;4.38;;;17.30;99.90;;;;;;4803393;29;20102;-92
2021/09/01 08:11:48;;;;;;;18.75;3.95;;;17.40;99.90;;;;;;4808041;29;20129;-92
2021/09/01 08:14:13;;;;;;;18.83;3.80;;;17.40;99.90;;;;;;4804383;29;20073;-91
2021/09/01 08:16:39;;;;;;;19.60;4.80;;;17.40;99.90;;;;;;4804192;29;20484;-91
2021/09/01 08:19:05;;;;;;;18.77;3.70;;;17.40;99.90;;;;;;4803873;29;20050;-89
2021/09/01 08:21:30;;;;;;;15.88;4.47;;;17.40;99.90;;;;;;4775266;29;20552;-91
2021/09/01 08:23:56;;;;;;;10.63;3.58;;;17.40;99.90;;;;;;4804645;29;20050;-91
2021/09/01 08:26:22;;;;;;;17.50;3.85;;;17.50;99.90;;;;;;4789999;29;20071;-91
2021/09/01 08:28:49;;;;;;;18.25;4.03;;;17.50;99.90;;;;;;4804189;29;20054;-92
2021/09/01 08:31:15;;;;;;;11.27;3.42;;;17.50;99.90;;;;;;4792469;29;20051;-91
2021/09/01 08:33:41;;;;;;;17.40;3.78;;;17.50;99.90;;;;;;4793998;29;20105;-91
2021/09/01 08:36:07;;;;;;;15.05;4.18;;;17.60;99.90;;;;;;4809445;29;20055;-92
2021/09/01 08:38:32;;;;;;;16.20;4.30;;;17.60;99.90;;;;;;4777119;29;20042;-92
2021/09/01 08:40:58;;;;;;;17.92;3.72;;;17.70;99.90;;;;;;4799526;29;20487;-93
2021/09/01 08:43:24;;;;;;;14.43;3.97;;;17.80;99.90;;;;;;4788776;29;20049;-92
2021/09/01 08:45:50;;;;;;;14.90;3.60;;;17.80;99.90;;;;;;4810104;29;20073;-92
2021/09/01 08:48:16;;;;;;;12.95;3.05;;;18.00;99.90;;;;;;4809961;29;20046;-92
2021/09/01 08:50:42;;;;;;;12.35;3.40;;;18.10;99.90;;;;;;4811030;29;20054;-91
2021/09/01 08:53:09;;;;;;;16.63;3.50;;;18.10;99.90;;;;;;4810273;29;20052;-91
2021/09/01 08:55:34;;;;;;;10.68;3.78;;;18.30;99.90;;;;;;4804139;29;20054;-92
2021/09/01 08:58:00;;;;;;;16.80;3.45;;;18.30;99.90;;;;;;4792418;29;20082;-93
2021/09/01 09:00:26;;;;;;;11.82;3.55;;;18.40;99.90;;;;;;4794303;29;20042;-92
2021/09/01 09:02:57;;;;;;;17.15;3.60;;;18.50;99.90;;;;;;4793270;29;20062;-90
2021/09/01 09:05:34;;;;;;;10.93;3.25;;;18.50;99.90;;;;;;4792119;29;20038;-92
2021/09/01 09:08:00;;;;;;;16.02;3.60;;;18.70;99.90;;;;;;4807747;29;20142;-92
2021/09/01 09:10:33;;;;;;;14.27;3.38;;;18.70;99.90;;;;;;4777454;29;20392;-93
2021/09/01 09:13:24;;;;;;;10.40;3.70;;;18.70;99.90;;;;;;4807816;29;20050;-92
2021/09/01 09:16:03;;;;;;;15.52;3.85;;;18.80;99.90;;;;;;4795794;29;20145;-93
2021/09/01 09:18:30;;;;;;;14.05;3.60;;;18.80;99.90;;;;;;4807752;29;20085;-93
2021/09/01 09:21:15;;;;;;;13.88;3.60;;;18.80;99.90;;;;;;4808545;29;20057;-94
2021/09/01 09:23:42;;;;;;;12.55;3.20;;;19.00;99.90;;;;;;4808343;29;20053;-94
2021/09/01 09:26:21;;;;;;;12.15;3.20;;;19.10;99.90;;;;;;4793449;29;20042;-93
2021/09/01 09:29:07;;;;;;;8.98;3.78;;;19.20;99.90;;;;;;4793205;29;20054;-94
2021/09/01 09:31:33;;;;;;;17.85;4.47;;;19.10;99.90;;;;;;4808179;29;20672;-93
2021/09/01 09:34:21;;;;;;;10.73;3.45;;;19.10;99.90;;;;;;4807903;29;20133;-93
2021/09/01 09:37:13;;;;;;;13.50;3.72;;;19.10;99.90;;;;;;4792085;29;20134;-93
2021/09/01 09:39:46;;;;;;;9.18;3.33;;;19.30;99.90;;;;;;4822556;29;20058;-92
2021/09/01 09:42:28;;;;;;;10.30;3.13;;;19.20;99.90;;;;;;4807694;29;20046;-92
2021/09/01 09:44:54;;;;;;;14.13;4.38;;;19.20;99.90;;;;;;4792631;29;20058;-92
2021/09/01 09:47:49;;;;;;;13.52;3.72;;;19.40;99.90;;;;;;4807042;29;20127;-92
2021/09/01 09:50:16;;;;;;;18.27;4.25;;;19.50;99.90;;;;;;4806958;29;20054;-92
2021/09/01 09:52:42;;;;;;;15.77;4.15;;;19.50;99.90;;;;;;4792266;29;20050;-92
2021/09/01 09:55:12;;;;;;;14.05;3.83;;;19.50;99.90;;;;;;4820296;29;20552;-93
2021/09/01 09:57:52;;;;;;;18.42;4.03;;;19.50;99.90;;;;;;4800875;29;20038;-91
2021/09/01 10:00:19;;;;;;;9.98;3.28;;;19.30;99.90;;;;;;4791884;29;20456;-93
2021/09/01 10:02:45;;;;;;;18.23;3.90;;;19.20;99.90;;;;;;4802514;29;20054;-92
2021/09/01 10:05:17;;;;;;;18.88;3.97;;;19.20;99.90;;;;;;4808172;29;20411;-95
2021/09/01 10:07:44;;;;;;;18.73;4.50;;;19.10;99.90;;;;;;4809658;29;20091;-92
2021/09/01 10:10:14;;;;;;;13.93;4.07;;;19.00;99.90;;;;;;4793857;29;20058;-94
2021/09/01 10:12:41;;;;;;;20.27;4.00;;;18.90;99.90;;;;;;4810409;29;20054;-93
2021/09/01 10:15:11;;;;;;;17.83;5.28;;;19.00;99.90;;;;;;4808448;29;20541;-93
2021/09/01 10:17:40;;;;;;;14.27;4.10;;;19.00;99.90;;;;;;4806445;29;20118;-93
2021/09/01 10:20:16;;;;;;;11.10;3.20;;;19.00;99.90;;;;;;4808474;29;20399;-93
2021/09/01 10:22:42;;;;;;;16.25;4.00;;;19.00;99.90;;;;;;4807893;29;20085;-94
2021/09/01 10:25:08;;;;;;;14.90;3.53;;;18.90;99.90;;;;;;4762232;29;20504;-92
2021/09/01 10:27:33;;;;;;;14.45;3.78;;;18.90;99.90;;;;;;4799478;29;20050;-88
2021/09/01 10:30:08;;;;;;;19.38;4.65;;;18.90;99.90;;;;;;4809267;29;20061;-90
2021/09/01 10:32:47;;;;;;;16.80;3.78;;;18.90;99.90;;;;;;4820643;29;20538;-89
2021/09/01 10:35:16;;;;;;;22.52;4.75;;;19.00;99.90;;;;;;4820709;29;20795;-88
2021/09/01 10:37:55;;;;;;;12.32;4.10;;;19.10;99.90;;;;;;4805410;29;20503;-90
2021/09/01 10:40:20;;;;;;;15.27;3.63;;;19.00;99.90;;;;;;4793327;29;20055;-88
2021/09/01 10:42:50;;;;;;;16.95;3.90;;;18.90;99.90;;;;;;4807378;29;20069;-89
2021/09/01 10:45:17;;;;;;;;;;;18.80;99.90;;;;;;4808752;29;20138;-93
2021/09/01 10:47:52;;;;;;;13.48;3.50;;;18.80;99.90;;;;;;4802575;29;19928;-94
2021/09/01 10:50:25;;;;;;;14.43;3.88;;;18.80;99.90;;;;;;4809253;29;20062;-94
2021/09/01 10:53:03;;;;;;;21.77;3.97;;;18.70;99.90;;;;;;4808885;29;20058;-94
2021/09/01 10:55:30;;;;;;;14.60;3.90;;;18.80;99.90;;;;;;4808431;29;20046;-93
2021/09/01 10:58:17;;;;;;;17.95;3.65;;;18.80;99.90;;;;;;4805731;29;20050;-95
2021/09/01 11:00:43;;;;;;;11.95;3.33;;;19.00;99.90;;;;;;4803893;29;20043;-94
2021/09/01 11:03:10;;;;;;;13.20;3.58;;;19.10;99.90;;;;;;4791497;29;20061;-94
2021/09/01 11:05:36;;;;;;;13.10;3.95;;;19.20;99.90;;;;;;4807358;29;20077;-93
2021/09/01 11:08:01;;;;;;;19.20;3.60;;;19.20;99.90;;;;;;4809077;29;20062;-95
2021/09/01 11:10:28;;;;;;;18.27;3.97;;;19.10;99.90;;;;;;4791143;29;20050;-95
2021/09/01 11:13:02;;;;;;;15.25;3.80;;;19.30;99.90;;;;;;4790603;29;20062;-96
2021/09/01 11:15:42;;;;;;;14.82;4.07;;;19.50;99.90;;;;;;4805417;29;20523;-95
2021/09/01 11:18:08;;;;;;;11.93;3.22;;;19.50;99.90;;;;;;4793579;29;20117;-94
2021/09/01 11:20:35;;;;;;;14.95;3.55;;;19.50;99.90;;;;;;4788995;29;20054;-94
2021/09/01 11:23:02;;;;;;;20.38;3.95;;;19.40;99.90;;;;;;4805440;29;20082;-96
2021/09/01 11:25:30;;;;;;;18.17;3.38;;;19.50;99.90;;;;;;4791207;29;20061;-95
2021/09/01 11:27:58;;;;;;;20.35;4.85;;;19.80;99.90;;;;;;4807211;29;20054;-95
2021/09/01 11:30:34;;;;;;;15.05;3.80;;;19.90;99.90;;;;;;4792616;29;20077;-94
2021/09/01 11:33:00;;;;;;;16.15;3.42;;;19.90;99.90;;;;;;4807388;29;20089;-96
2021/09/01 11:35:29;;;;;;;13.35;3.67;;;19.90;99.90;;;;;;4791412;29;20464;-94
2021/09/01 11:38:08;;;;;;;14.43;2.92;;;20.00;99.90;;;;;;4806782;29;20141;-94
2021/09/01 11:40:42;;;;;;;9.20;2.83;;;20.10;99.90;;;;;;4806628;29;20046;-96
2021/09/01 11:43:12;;;;;;;12.43;3.58;;;20.30;99.90;;;;;;4792213;29;20138;-94
2021/09/01 11:45:49;;;;;;;16.98;2.88;;;20.30;99.90;;;;;;4790953;29;20488;-94
2021/09/01 11:48:15;;;;;;;20.40;3.90;;;20.50;99.90;;;;;;4807026;29;20054;-95
2021/09/01 11:50:42;;;;;;;11.95;2.67;;;20.50;99.90;;;;;;4813202;29;20054;-89
2021/09/01 11:53:13;;;;;;;10.07;2.75;;;20.40;99.90;;;;;;4804338;29;20062;-89
2021/09/01 11:55:40;;;;;;;14.15;3.72;;;20.30;99.90;;;;;;4810594;29;20051;-87
2021/09/01 11:58:16;;;;;;;10.55;3.20;;;20.40;99.90;;;;;;4808656;29;20093;-87
2021/09/01 12:00:44;;;;;;;12.43;2.95;;;20.20;99.90;;;;;;4806537;29;20135;-87
2021/09/01 12:03:13;;;;;;;21.08;5.00;;;20.30;99.90;;;;;;4804309;29;20054;-88
2021/09/01 12:05:43;;;;;;;11.88;3.72;;;20.30;99.90;;;;;;4780295;29;20050;-88
2021/09/01 12:08:21;;;;;;;9.85;3.22;;;20.30;99.90;;;;;;4779972;29;20058;-88
2021/09/01 12:10:49;;;;;;;12.10;3.38;;;20.30;99.90;;;;;;4789264;29;20065;-96
2021/09/01 12:13:16;;;;;;;9.52;3.10;;;20.40;99.90;;;;;;4806564;29;20157;-96
2021/09/01 12:15:58;;;;;;;9.50;2.83;;;20.50;99.90;;;;;;4806218;29;20064;-94
2021/09/01 12:18:24;;;;;;;8.55;2.70;;;20.60;99.90;;;;;;4817011;29;20057;-95
2021/09/01 12:20:57;;;;;;;11.63;3.17;;;20.70;99.90;;;;;;4805821;29;20058;-95
2021/09/01 12:23:23;;;;;;;12.95;3.40;;;20.50;99.90;;;;;;4807251;29;20130;-96
2021/09/01 12:25:49;;;;;;;7.00;2.30;;;20.40;99.90;;;;;;4791057;29;20161;-95
2021/09/01 12:28:17;;;;;;;10.65;2.30;;;20.40;99.90;;;;;;4806475;29;20054;-96
2021/09/01 12:30:48;;;;;;;11.15;2.95;;;20.30;99.90;;;;;;4806995;29;20051;-96
2021/09/01 12:33:19;;;;;;;7.55;2.53;;;20.10;99.90;;;;;;4793977;29;20061;-96
2021/09/01 12:35:56;;;;;;;10.40;2.95;;;20.10;99.90;;;;;;4809460;29;20074;-95
2021/09/01 12:38:23;;;;;;;16.33;3.00;;;20.30;99.90;;;;;;4809894;29;20042;-96
2021/09/01 12:40:50;;;;;;;11.40;3.28;;;20.30;99.90;;;;;;4812551;29;20399;-96